sensor_id;sensor_type;location;lat;lon;timestamp;pressure;altitude;pressure_sealevel;temperature;humidity
8334;BME280;4204;43.004;23.052;2023-07-02T00:00:05;93198.38;;;18.12;100.00
8334;BME280;4204;43.004;23.052;2023-07-02T00:02:37;93204.88;;;18.07;100.00
8334;BME280;4204;43.004;23.052;2023-07-02T00:05:05;93193.41;;;18.17;100.00
8334;BME280;4204;43.004;23.052;2023-07-02T00:07:34;93186.44;;;18.06;100.00
8334;BME280;4204;43.004;23.052;2023-07-02T00:10:04;93191.44;;;18.07;100.00
8334;BME280;4204;43.004;23.052;2023-07-02T00:12:32;93183.25;;;17.93;100.00
8334;BME280;4204;43.004;23.052;2023-07-02T00:15:00;93191.41;;;18.04;100.00
8334;BME280;4204;43.004;23.052;2023-07-02T00:17:30;93193.72;;;18.02;100.00
8334;BME280;4204;43.004;23.052;2023-07-02T00:19:58;93196.81;;;18.11;100.00
8334;BME280;4204;43.004;23.052;2023-07-02T00:22:29;93204.16;;;18.14;100.00
8334;BME280;4204;43.004;23.052;2023-07-02T00:24:57;93221.84;;;18.15;100.00
8334;BME280;4204;43.004;23.052;2023-07-02T00:27:26;93222.31;;;18.24;100.00
8334;BME280;4204;43.004;23.052;2023-07-02T00:29:54;93219.94;;;18.15;100.00
8334;BME280;4204;43.004;23.052;2023-07-02T00:32:22;93215.34;;;18.16;100.00
8334;BME280;4204;43.004;23.052;2023-07-02T00:34:49;93214.94;;;18.14;100.00
8334;BME280;4204;43.004;23.052;2023-07-02T00:37:17;93218.41;;;18.14;100.00
8334;BME280;4204;43.004;23.052;2023-07-02T00:39:45;93208.78;;;18.17;100.00
8334;BME280;4204;43.004;23.052;2023-07-02T00:42:13;93214.97;;;18.21;100.00
8334;BME280;4204;43.004;23.052;2023-07-02T00:44:44;93211.16;;;18.25;100.00
8334;BME280;4204;43.004;23.052;2023-07-02T00:47:12;93217.34;;;18.29;100.00
8334;BME280;4204;43.004;23.052;2023-07-02T00:49:40;93210.75;;;18.23;100.00
8334;BME280;4204;43.004;23.052;2023-07-02T00:52:08;93220.00;;;18.22;100.00
8334;BME280;4204;43.004;23.052;2023-07-02T00:54:36;93210.41;;;18.25;100.00
8334;BME280;4204;43.004;23.052;2023-07-02T00:57:04;93212.34;;;18.31;100.00
8334;BME280;4204;43.004;23.052;2023-07-02T00:59:32;93198.84;;;18.24;100.00
8334;BME280;4204;43.004;23.052;2023-07-02T01:02:03;93203.88;;;18.29;100.00
8334;BME280;4204;43.004;23.052;2023-07-02T01:04:33;93208.53;;;18.32;100.00
8334;BME280;4204;43.004;23.052;2023-07-02T01:07:00;93201.16;;;18.22;100.00
8334;BME280;4204;43.004;23.052;2023-07-02T01:09:29;93197.34;;;18.27;100.00
8334;BME280;4204;43.004;23.052;2023-07-02T01:11:59;93185.78;;;18.26;100.00
8334;BME280;4204;43.004;23.052;2023-07-02T01:14:31;93196.94;;;18.25;100.00
8334;BME280;4204;43.004;23.052;2023-07-02T01:17:00;93201.56;;;18.24;100.00
8334;BME280;4204;43.004;23.052;2023-07-02T01:19:42;93211.28;;;18.43;100.00
8334;BME280;4204;43.004;23.052;2023-07-02T01:22:12;93215.41;;;18.30;100.00
8334;BME280;4204;43.004;23.052;2023-07-02T01:24:40;93206.56;;;18.29;100.00
8334;BME280;4204;43.004;23.052;2023-07-02T01:27:08;93201.31;;;18.43;100.00
8334;BME280;4204;43.004;23.052;2023-07-02T01:29:36;93196.75;;;18.58;100.00
8334;BME280;4204;43.004;23.052;2023-07-02T01:32:05;93195.63;;;18.63;100.00
8334;BME280;4204;43.004;23.052;2023-07-02T01:34:32;93196.06;;;18.75;100.00
8334;BME280;4204;43.004;23.052;2023-07-02T01:37:03;93180.25;;;18.67;100.00
8334;BME280;4204;43.004;23.052;2023-07-02T01:39:31;93192.09;;;18.48;100.00
8334;BME280;4204;43.004;23.052;2023-07-02T01:42:08;93195.63;;;18.55;100.00
8334;BME280;4204;43.004;23.052;2023-07-02T01:44:36;93184.41;;;18.46;100.00
8334;BME280;4204;43.004;23.052;2023-07-02T01:47:04;93187.09;;;18.46;100.00
8334;BME280;4204;43.004;23.052;2023-07-02T01:49:32;93190.63;;;18.58;100.00
8334;BME280;4204;43.004;23.052;2023-07-02T01:52:01;93184.06;;;18.51;100.00
8334;BME280;4204;43.004;23.052;2023-07-02T01:54:30;93175.97;;;18.55;100.00
8334;BME280;4204;43.004;23.052;2023-07-02T01:56:59;93178.31;;;18.60;100.00
8334;BME280;4204;43.004;23.052;2023-07-02T01:59:26;93180.19;;;18.49;100.00
8334;BME280;4204;43.004;23.052;2023-07-02T02:01:54;93164.25;;;18.23;100.00
8334;BME280;4204;43.004;23.052;2023-07-02T02:04:22;93168.03;;;18.15;100.00
8334;BME280;4204;43.004;23.052;2023-07-02T02:06:49;93172.22;;;18.09;100.00
8334;BME280;4204;43.004;23.052;2023-07-02T02:09:19;93161.91;;;18.18;100.00
8334;BME280;4204;43.004;23.052;2023-07-02T02:11:49;93164.19;;;18.16;100.00
8334;BME280;4204;43.004;23.052;2023-07-02T02:14:17;93156.50;;;18.18;100.00
8334;BME280;4204;43.004;23.052;2023-07-02T02:16:44;93155.41;;;18.26;100.00
8334;BME280;4204;43.004;23.052;2023-07-02T02:19:12;93154.78;;;17.92;100.00
8334;BME280;4204;43.004;23.052;2023-07-02T02:21:41;93144.94;;;17.59;100.00
8334;BME280;4204;43.004;23.052;2023-07-02T02:24:08;93143.75;;;17.53;100.00
8334;BME280;4204;43.004;23.052;2023-07-02T02:26:37;93145.03;;;17.70;100.00
8334;BME280;4204;43.004;23.052;2023-07-02T02:29:05;93142.25;;;17.59;100.00
8334;BME280;4204;43.004;23.052;2023-07-02T02:31:33;93129.13;;;17.51;100.00
8334;BME280;4204;43.004;23.052;2023-07-02T02:34:03;93126.28;;;17.33;100.00
8334;BME280;4204;43.004;23.052;2023-07-02T02:36:31;93133.06;;;17.20;100.00
8334;BME280;4204;43.004;23.052;2023-07-02T02:39:00;93130.22;;;17.03;100.00
8334;BME280;4204;43.004;23.052;2023-07-02T02:41:29;93138.97;;;16.96;100.00
8334;BME280;4204;43.004;23.052;2023-07-02T02:43:58;93132.78;;;16.92;100.00
8334;BME280;4204;43.004;23.052;2023-07-02T02:46:26;93138.22;;;16.99;100.00
8334;BME280;4204;43.004;23.052;2023-07-02T02:48:54;93143.00;;;17.16;100.00
8334;BME280;4204;43.004;23.052;2023-07-02T02:51:22;93148.84;;;17.25;100.00
8334;BME280;4204;43.004;23.052;2023-07-02T02:53:49;93163.94;;;17.40;100.00
8334;BME280;4204;43.004;23.052;2023-07-02T02:56:17;93158.28;;;17.49;100.00
8334;BME280;4204;43.004;23.052;2023-07-02T02:58:45;93158.78;;;17.61;100.00
8334;BME280;4204;43.004;23.052;2023-07-02T03:01:14;93178.06;;;17.67;100.00
8334;BME280;4204;43.004;23.052;2023-07-02T03:03:42;93180.38;;;17.68;100.00
8334;BME280;4204;43.004;23.052;2023-07-02T03:06:12;93177.72;;;17.72;100.00
8334;BME280;4204;43.004;23.052;2023-07-02T03:08:40;93199.31;;;17.79;100.00
8334;BME280;4204;43.004;23.052;2023-07-02T03:11:08;93213.56;;;17.87;100.00
8334;BME280;4204;43.004;23.052;2023-07-02T03:13:36;93199.22;;;17.68;100.00
8334;BME280;4204;43.004;23.052;2023-07-02T03:16:04;93189.22;;;17.69;100.00
8334;BME280;4204;43.004;23.052;2023-07-02T03:18:33;93173.84;;;17.69;100.00
8334;BME280;4204;43.004;23.052;2023-07-02T03:21:01;93167.34;;;17.70;100.00
8334;BME280;4204;43.004;23.052;2023-07-02T03:23:29;93165.03;;;17.69;100.00
8334;BME280;4204;43.004;23.052;2023-07-02T03:25:57;93173.16;;;17.79;100.00
8334;BME280;4204;43.004;23.052;2023-07-02T03:28:24;93169.72;;;17.83;100.00
8334;BME280;4204;43.004;23.052;2023-07-02T03:30:52;93165.47;;;17.82;100.00
8334;BME280;4204;43.004;23.052;2023-07-02T03:33:19;93177.41;;;17.81;100.00
8334;BME280;4204;43.004;23.052;2023-07-02T03:35:48;93178.66;;;17.94;100.00
8334;BME280;4204;43.004;23.052;2023-07-02T03:38:16;93175.53;;;17.88;100.00
8334;BME280;4204;43.004;23.052;2023-07-02T03:40:44;93193.25;;;17.93;100.00
8334;BME280;4204;43.004;23.052;2023-07-02T03:43:12;93199.03;;;17.95;100.00
8334;BME280;4204;43.004;23.052;2023-07-02T03:45:39;93195.94;;;17.93;100.00
8334;BME280;4204;43.004;23.052;2023-07-02T03:48:07;93193.22;;;17.89;100.00
8334;BME280;4204;43.004;23.052;2023-07-02T03:50:35;93189.03;;;17.95;100.00
8334;BME280;4204;43.004;23.052;2023-07-02T03:53:04;93192.16;;;18.01;100.00
8334;BME280;4204;43.004;23.052;2023-07-02T03:55:31;93200.59;;;17.99;100.00
8334;BME280;4204;43.004;23.052;2023-07-02T03:57:59;93195.59;;;17.98;100.00
8334;BME280;4204;43.004;23.052;2023-07-02T04:00:26;93201.00;;;18.01;100.00
8334;BME280;4204;43.004;23.052;2023-07-02T04:02:54;93197.13;;;17.99;100.00
8334;BME280;4204;43.004;23.052;2023-07-02T04:05:23;93211.44;;;18.06;100.00
8334;BME280;4204;43.004;23.052;2023-07-02T04:07:50;93204.81;;;17.97;100.00
8334;BME280;4204;43.004;23.052;2023-07-02T04:10:19;93207.16;;;18.02;100.00
8334;BME280;4204;43.004;23.052;2023-07-02T04:12:47;93203.31;;;18.03;100.00
8334;BME280;4204;43.004;23.052;2023-07-02T04:15:15;93202.19;;;18.04;100.00
8334;BME280;4204;43.004;23.052;2023-07-02T04:17:43;93207.63;;;18.14;100.00
8334;BME280;4204;43.004;23.052;2023-07-02T04:20:11;93211.53;;;18.24;100.00
8334;BME280;4204;43.004;23.052;2023-07-02T04:22:39;93216.59;;;18.29;100.00
8334;BME280;4204;43.004;23.052;2023-07-02T04:25:07;93220.09;;;18.36;100.00
8334;BME280;4204;43.004;23.052;2023-07-02T04:27:36;93223.63;;;18.44;100.00
8334;BME280;4204;43.004;23.052;2023-07-02T04:30:05;93229.44;;;18.49;100.00
8334;BME280;4204;43.004;23.052;2023-07-02T04:32:34;93234.47;;;18.58;100.00
8334;BME280;4204;43.004;23.052;2023-07-02T04:35:02;93234.13;;;18.67;100.00
8334;BME280;4204;43.004;23.052;2023-07-02T04:37:30;93236.06;;;18.66;100.00
8334;BME280;4204;43.004;23.052;2023-07-02T04:39:57;93235.28;;;18.66;100.00
8334;BME280;4204;43.004;23.052;2023-07-02T04:42:26;93234.16;;;18.70;100.00
8334;BME280;4204;43.004;23.052;2023-07-02T04:44:55;93226.88;;;18.74;100.00
8334;BME280;4204;43.004;23.052;2023-07-02T04:47:22;93224.53;;;18.69;100.00
8334;BME280;4204;43.004;23.052;2023-07-02T04:49:50;93221.84;;;18.73;100.00
8334;BME280;4204;43.004;23.052;2023-07-02T04:52:18;93229.56;;;18.74;100.00
8334;BME280;4204;43.004;23.052;2023-07-02T04:54:46;93231.16;;;18.82;100.00
8334;BME280;4204;43.004;23.052;2023-07-02T04:57:13;93242.72;;;18.83;100.00
8334;BME280;4204;43.004;23.052;2023-07-02T04:59:41;93248.16;;;18.97;100.00
8334;BME280;4204;43.004;23.052;2023-07-02T05:02:10;93255.47;;;19.00;100.00
8334;BME280;4204;43.004;23.052;2023-07-02T05:04:38;93255.06;;;18.94;100.00
8334;BME280;4204;43.004;23.052;2023-07-02T05:07:06;93250.47;;;18.95;100.00
8334;BME280;4204;43.004;23.052;2023-07-02T05:09:33;93258.94;;;18.97;100.00
8334;BME280;4204;43.004;23.052;2023-07-02T05:12:01;93260.13;;;19.06;100.00
8334;BME280;4204;43.004;23.052;2023-07-02T05:14:29;93263.59;;;19.07;100.00
8334;BME280;4204;43.004;23.052;2023-07-02T05:16:57;93261.25;;;19.02;100.00
8334;BME280;4204;43.004;23.052;2023-07-02T05:19:26;93266.31;;;19.10;100.00
8334;BME280;4204;43.004;23.052;2023-07-02T05:21:54;93263.59;;;19.10;100.00
8334;BME280;4204;43.004;23.052;2023-07-02T05:24:22;93265.53;;;19.10;100.00
8334;BME280;4204;43.004;23.052;2023-07-02T05:26:49;93265.69;;;19.34;100.00
8334;BME280;4204;43.004;23.052;2023-07-02T05:29:18;93264.94;;;19.45;100.00
8334;BME280;4204;43.004;23.052;2023-07-02T05:31:45;93259.94;;;19.47;100.00
8334;BME280;4204;43.004;23.052;2023-07-02T05:34:13;93261.88;;;19.53;100.00
8334;BME280;4204;43.004;23.052;2023-07-02T05:36:42;93258.81;;;19.65;100.00
8334;BME280;4204;43.004;23.052;2023-07-02T05:39:10;93265.75;;;19.73;100.00
8334;BME280;4204;43.004;23.052;2023-07-02T05:41:38;93268.84;;;19.72;100.00
8334;BME280;4204;43.004;23.052;2023-07-02T05:44:05;93258.84;;;19.83;100.00
8334;BME280;4204;43.004;23.052;2023-07-02T05:46:33;93250.34;;;19.81;100.00
8334;BME280;4204;43.004;23.052;2023-07-02T05:49:01;93258.06;;;19.89;100.00
8334;BME280;4204;43.004;23.052;2023-07-02T05:51:28;93262.69;;;20.03;100.00
8334;BME280;4204;43.004;23.052;2023-07-02T05:53:58;93267.34;;;20.02;100.00
8334;BME280;4204;43.004;23.052;2023-07-02T05:56:25;93269.66;;;20.00;100.00
8334;BME280;4204;43.004;23.052;2023-07-02T05:58:53;93278.16;;;20.06;100.00
8334;BME280;4204;43.004;23.052;2023-07-02T06:01:21;93271.19;;;20.05;100.00
8334;BME280;4204;43.004;23.052;2023-07-02T06:03:49;93279.31;;;20.12;100.00
8334;BME280;4204;43.004;23.052;2023-07-02T06:06:17;93276.97;;;20.17;100.00
8334;BME280;4204;43.004;23.052;2023-07-02T06:08:45;93261.59;;;20.25;100.00
8334;BME280;4204;43.004;23.052;2023-07-02T06:11:14;93265.06;;;20.33;100.00
8334;BME280;4204;43.004;23.052;2023-07-02T06:13:42;93260.06;;;20.28;100.00
8334;BME280;4204;43.004;23.052;2023-07-02T06:16:10;93265.47;;;20.31;100.00
8334;BME280;4204;43.004;23.052;2023-07-02T06:18:38;93260.44;;;20.33;100.00
8334;BME280;4204;43.004;23.052;2023-07-02T06:21:06;93258.50;;;20.41;100.00
8334;BME280;4204;43.004;23.052;2023-07-02T06:23:40;93253.88;;;20.52;100.00
8334;BME280;4204;43.004;23.052;2023-07-02T06:26:08;93252.34;;;20.33;100.00
8334;BME280;4204;43.004;23.052;2023-07-02T06:28:38;93249.25;;;20.52;100.00
8334;BME280;4204;43.004;23.052;2023-07-02T06:31:06;93244.97;;;20.58;100.00
8334;BME280;4204;43.004;23.052;2023-07-02T06:33:33;93248.81;;;20.75;100.00
8334;BME280;4204;43.004;23.052;2023-07-02T06:36:01;93253.06;;;20.79;100.00
8334;BME280;4204;43.004;23.052;2023-07-02T06:38:29;93246.06;;;20.89;100.00
8334;BME280;4204;43.004;23.052;2023-07-02T06:40:57;93250.69;;;21.03;100.00
8334;BME280;4204;43.004;23.052;2023-07-02T06:43:24;93235.22;;;21.07;100.00
8334;BME280;4204;43.004;23.052;2023-07-02T06:45:54;93242.16;;;21.11;100.00
8334;BME280;4204;43.004;23.052;2023-07-02T06:48:21;93242.91;;;21.15;100.00
8334;BME280;4204;43.004;23.052;2023-07-02T06:50:49;93246.38;;;21.23;100.00
8334;BME280;4204;43.004;23.052;2023-07-02T06:53:17;93240.50;;;21.31;100.00
8334;BME280;4204;43.004;23.052;2023-07-02T06:55:45;93247.09;;;21.34;100.00
8334;BME280;4204;43.004;23.052;2023-07-02T06:58:12;93249.00;;;21.37;100.00
8334;BME280;4204;43.004;23.052;2023-07-02T07:00:40;93250.44;;;21.59;100.00
8334;BME280;4204;43.004;23.052;2023-07-02T07:03:09;93253.88;;;21.70;100.00
8334;BME280;4204;43.004;23.052;2023-07-02T07:05:37;93256.13;;;21.75;100.00
8334;BME280;4204;43.004;23.052;2023-07-02T07:08:05;93257.66;;;21.83;100.00
8334;BME280;4204;43.004;23.052;2023-07-02T07:10:33;93249.84;;;21.99;100.00
8334;BME280;4204;43.004;23.052;2023-07-02T07:13:01;93256.03;;;21.96;100.00
8334;BME280;4204;43.004;23.052;2023-07-02T07:15:31;93271.50;;;21.99;100.00
8334;BME280;4204;43.004;23.052;2023-07-02T07:17:59;93256.69;;;22.14;100.00
8334;BME280;4204;43.004;23.052;2023-07-02T07:20:29;93253.88;;;22.28;100.00
8334;BME280;4204;43.004;23.052;2023-07-02T07:22:57;93241.91;;;22.26;100.00
8334;BME280;4204;43.004;23.052;2023-07-02T07:25:24;93249.22;;;22.32;100.00
8334;BME280;4204;43.004;23.052;2023-07-02T07:27:52;93251.88;;;22.36;100.00
8334;BME280;4204;43.004;23.052;2023-07-02T07:30:21;93239.09;;;22.36;100.00
8334;BME280;4204;43.004;23.052;2023-07-02T07:32:50;93237.88;;;22.41;100.00
8334;BME280;4204;43.004;23.052;2023-07-02T07:35:18;93243.66;;;22.46;100.00
8334;BME280;4204;43.004;23.052;2023-07-02T07:37:47;93222.66;;;22.61;100.00
8334;BME280;4204;43.004;23.052;2023-07-02T07:40:16;93234.91;;;22.73;100.00
8334;BME280;4204;43.004;23.052;2023-07-02T07:42:43;93225.63;;;22.70;100.00
8334;BME280;4204;43.004;23.052;2023-07-02T07:48:19;93236.00;;;22.79;100.00
8334;BME280;4204;43.004;23.052;2023-07-02T07:50:47;93222.09;;;22.77;100.00
8334;BME280;4204;43.004;23.052;2023-07-02T07:53:16;93234.00;;;22.86;100.00
8334;BME280;4204;43.004;23.052;2023-07-02T07:55:44;93235.78;;;23.00;100.00
8334;BME280;4204;43.004;23.052;2023-07-02T07:58:12;93241.16;;;23.03;100.00
8334;BME280;4204;43.004;23.052;2023-07-02T08:00:39;93231.38;;;23.13;100.00
8334;BME280;4204;43.004;23.052;2023-07-02T08:03:07;93235.56;;;23.21;100.00
8334;BME280;4204;43.004;23.052;2023-07-02T08:05:35;93243.22;;;23.26;100.00
8334;BME280;4204;43.004;23.052;2023-07-02T08:08:03;93246.34;;;23.24;100.00
8334;BME280;4204;43.004;23.052;2023-07-02T08:10:32;93244.06;;;23.23;100.00
8334;BME280;4204;43.004;23.052;2023-07-02T08:12:59;93238.16;;;23.28;100.00
8334;BME280;4204;43.004;23.052;2023-07-02T08:15:27;93238.78;;;23.46;100.00
8334;BME280;4204;43.004;23.052;2023-07-02T08:17:55;93239.75;;;23.59;100.00
8334;BME280;4204;43.004;23.052;2023-07-02T08:20:25;93252.88;;;23.64;100.00
8334;BME280;4204;43.004;23.052;2023-07-02T08:22:52;93252.94;;;23.61;100.00
8334;BME280;4204;43.004;23.052;2023-07-02T08:25:21;93262.09;;;23.70;100.00
8334;BME280;4204;43.004;23.052;2023-07-02T08:27:51;93252.97;;;23.84;100.00
8334;BME280;4204;43.004;23.052;2023-07-02T08:30:18;93262.97;;;23.90;100.00
8334;BME280;4204;43.004;23.052;2023-07-02T08:32:46;93252.84;;;23.94;100.00
8334;BME280;4204;43.004;23.052;2023-07-02T08:35:14;93265.34;;;23.88;100.00
8334;BME280;4204;43.004;23.052;2023-07-02T08:37:41;93263.13;;;23.80;100.00
8334;BME280;4204;43.004;23.052;2023-07-02T08:40:15;93262.63;;;23.88;100.00
8334;BME280;4204;43.004;23.052;2023-07-02T08:42:45;93256.03;;;23.89;100.00
8334;BME280;4204;43.004;23.052;2023-07-02T08:45:15;93262.72;;;24.12;100.00
8334;BME280;4204;43.004;23.052;2023-07-02T08:47:43;93271.22;;;24.14;100.00
8334;BME280;4204;43.004;23.052;2023-07-02T08:50:12;93263.44;;;24.16;100.00
8334;BME280;4204;43.004;23.052;2023-07-02T08:52:40;93273.06;;;24.20;100.00
8334;BME280;4204;43.004;23.052;2023-07-02T08:55:09;93266.09;;;24.19;100.00
8334;BME280;4204;43.004;23.052;2023-07-02T08:57:37;93252.03;;;24.24;100.00
8334;BME280;4204;43.004;23.052;2023-07-02T09:00:08;93257.31;;;24.35;100.00
8334;BME280;4204;43.004;23.052;2023-07-02T09:02:38;93246.78;;;24.37;100.00
8334;BME280;4204;43.004;23.052;2023-07-02T09:05:06;93245.50;;;24.45;100.00
8334;BME280;4204;43.004;23.052;2023-07-02T09:07:43;93256.41;;;24.64;100.00
8334;BME280;4204;43.004;23.052;2023-07-02T09:10:12;93272.44;;;24.59;100.00
8334;BME280;4204;43.004;23.052;2023-07-02T09:12:39;93254.47;;;24.65;100.00
8334;BME280;4204;43.004;23.052;2023-07-02T09:15:07;93255.97;;;24.69;100.00
8334;BME280;4204;43.004;23.052;2023-07-02T09:17:38;93254.22;;;24.82;100.00
8334;BME280;4204;43.004;23.052;2023-07-02T09:20:06;93255.72;;;24.83;100.00
8334;BME280;4204;43.004;23.052;2023-07-02T09:22:35;93252.19;;;24.86;100.00
8334;BME280;4204;43.004;23.052;2023-07-02T09:25:03;93243.97;;;24.90;100.00
8334;BME280;4204;43.004;23.052;2023-07-02T09:27:34;93238.94;;;25.08;100.00
8334;BME280;4204;43.004;23.052;2023-07-02T09:30:07;93238.94;;;25.08;100.00
8334;BME280;4204;43.004;23.052;2023-07-02T09:32:35;93246.56;;;25.17;100.00
8334;BME280;4204;43.004;23.052;2023-07-02T09:35:06;93258.09;;;25.24;100.00
8334;BME280;4204;43.004;23.052;2023-07-02T09:37:33;93251.88;;;25.24;100.00
8334;BME280;4204;43.004;23.052;2023-07-02T09:40:02;93239.66;;;25.32;100.00
8334;BME280;4204;43.004;23.052;2023-07-02T09:42:32;93245.81;;;25.36;100.00
8334;BME280;4204;43.004;23.052;2023-07-02T09:45:01;93240.84;;;25.31;100.00
8334;BME280;4204;43.004;23.052;2023-07-02T09:47:33;93249.59;;;25.22;100.00
8334;BME280;4204;43.004;23.052;2023-07-02T09:50:05;93241.19;;;25.13;100.00
8334;BME280;4204;43.004;23.052;2023-07-02T09:52:33;93245.78;;;25.16;100.00
8334;BME280;4204;43.004;23.052;2023-07-02T09:55:02;93244.34;;;25.12;100.00
8334;BME280;4204;43.004;23.052;2023-07-02T09:57:31;93242.25;;;25.19;100.00
8334;BME280;4204;43.004;23.052;2023-07-02T10:00:00;93251.25;;;25.16;100.00
8334;BME280;4204;43.004;23.052;2023-07-02T10:02:31;93245.03;;;25.16;100.00
8334;BME280;4204;43.004;23.052;2023-07-02T10:04:59;93236.38;;;25.21;100.00
8334;BME280;4204;43.004;23.052;2023-07-02T10:07:30;93236.53;;;25.33;100.00
8334;BME280;4204;43.004;23.052;2023-07-02T10:09:58;93235.34;;;25.34;100.00
8334;BME280;4204;43.004;23.052;2023-07-02T10:12:27;93241.13;;;25.17;100.00
8334;BME280;4204;43.004;23.052;2023-07-02T10:14:59;93229.75;;;25.22;100.00
8334;BME280;4204;43.004;23.052;2023-07-02T10:17:28;93231.84;;;25.14;100.00
8334;BME280;4204;43.004;23.052;2023-07-02T10:19:58;93229.06;;;25.18;100.00
8334;BME280;4204;43.004;23.052;2023-07-02T10:22:27;93227.38;;;25.24;100.00
8334;BME280;4204;43.004;23.052;2023-07-02T10:24:57;93229.63;;;25.09;100.00
8334;BME280;4204;43.004;23.052;2023-07-02T10:27:33;93239.03;;;25.05;100.00
8334;BME280;4204;43.004;23.052;2023-07-02T10:30:03;93236.56;;;25.10;100.00
8334;BME280;4204;43.004;23.052;2023-07-02T10:32:32;93239.66;;;25.12;100.00
8334;BME280;4204;43.004;23.052;2023-07-02T10:35:12;93237.97;;;24.99;100.00
8334;BME280;4204;43.004;23.052;2023-07-02T10:37:40;93234.94;;;24.73;100.00
8334;BME280;4204;43.004;23.052;2023-07-02T10:40:10;93238.56;;;24.63;100.00
8334;BME280;4204;43.004;23.052;2023-07-02T10:42:46;93240.75;;;24.49;100.00
8334;BME280;4204;43.004;23.052;2023-07-02T10:45:14;93248.16;;;24.48;100.00
8334;BME280;4204;43.004;23.052;2023-07-02T10:47:42;93246.91;;;24.53;100.00
8334;BME280;4204;43.004;23.052;2023-07-02T10:50:15;93249.28;;;24.51;100.00
8334;BME280;4204;43.004;23.052;2023-07-02T10:52:43;93250.13;;;24.48;100.00
8334;BME280;4204;43.004;23.052;2023-07-02T10:55:17;93255.06;;;24.53;100.00
8334;BME280;4204;43.004;23.052;2023-07-02T10:57:46;93244.78;;;24.64;100.00
8334;BME280;4204;43.004;23.052;2023-07-02T11:00:18;93257.47;;;24.74;100.00
8334;BME280;4204;43.004;23.052;2023-07-02T11:02:47;93252.53;;;24.65;100.00
8334;BME280;4204;43.004;23.052;2023-07-02T11:05:14;93252.19;;;24.63;100.00
8334;BME280;4204;43.004;23.052;2023-07-02T11:07:43;93250.28;;;24.60;100.00
8334;BME280;4204;43.004;23.052;2023-07-02T11:10:20;93238.28;;;24.58;100.00
8334;BME280;4204;43.004;23.052;2023-07-02T11:12:48;93235.41;;;24.68;100.00
8334;BME280;4204;43.004;23.052;2023-07-02T11:15:17;93232.19;;;24.97;100.00
8334;BME280;4204;43.004;23.052;2023-07-02T11:17:45;93239.59;;;25.16;100.00
8334;BME280;4204;43.004;23.052;2023-07-02T11:20:14;93225.28;;;25.31;100.00
8334;BME280;4204;43.004;23.052;2023-07-02T11:22:42;93225.97;;;25.35;100.00
8334;BME280;4204;43.004;23.052;2023-07-02T11:25:12;93227.88;;;25.58;100.00
8334;BME280;4204;43.004;23.052;2023-07-02T11:27:42;93221.50;;;25.64;100.00
8334;BME280;4204;43.004;23.052;2023-07-02T11:30:11;93224.50;;;25.70;100.00
8334;BME280;4204;43.004;23.052;2023-07-02T11:32:50;93225.78;;;25.65;100.00
8334;BME280;4204;43.004;23.052;2023-07-02T11:35:18;93212.34;;;25.75;100.00
8334;BME280;4204;43.004;23.052;2023-07-02T11:37:46;93213.03;;;25.79;100.00
8334;BME280;4204;43.004;23.052;2023-07-02T11:40:17;93212.69;;;25.93;100.00
8334;BME280;4204;43.004;23.052;2023-07-02T11:42:46;93210.16;;;26.02;100.00
8334;BME280;4204;43.004;23.052;2023-07-02T11:45:14;93206.66;;;26.01;100.00
8334;BME280;4204;43.004;23.052;2023-07-02T11:47:42;93208.13;;;26.06;100.00
8334;BME280;4204;43.004;23.052;2023-07-02T11:50:10;93205.63;;;26.15;100.00
8334;BME280;4204;43.004;23.052;2023-07-02T11:52:38;93202.41;;;26.36;100.00
8334;BME280;4204;43.004;23.052;2023-07-02T11:55:06;93197.88;;;26.29;100.00
8334;BME280;4204;43.004;23.052;2023-07-02T11:57:34;93200.84;;;26.35;100.00
8334;BME280;4204;43.004;23.052;2023-07-02T12:00:05;93208.19;;;26.38;100.00
8334;BME280;4204;43.004;23.052;2023-07-02T12:02:34;93208.94;;;26.22;100.00
8334;BME280;4204;43.004;23.052;2023-07-02T12:05:02;93206.47;;;26.12;100.00
8334;BME280;4204;43.004;23.052;2023-07-02T12:07:30;93198.22;;;26.15;100.00
8334;BME280;4204;43.004;23.052;2023-07-02T12:09:58;93214.63;;;26.12;100.00
8334;BME280;4204;43.004;23.052;2023-07-02T12:12:25;93218.25;;;26.05;100.00
8334;BME280;4204;43.004;23.052;2023-07-02T12:14:53;93220.72;;;26.00;100.00
8334;BME280;4204;43.004;23.052;2023-07-02T12:17:22;93226.41;;;25.89;100.00
8334;BME280;4204;43.004;23.052;2023-07-02T12:19:50;93226.47;;;25.70;100.00
8334;BME280;4204;43.004;23.052;2023-07-02T12:22:18;93221.25;;;25.59;100.00
8334;BME280;4204;43.004;23.052;2023-07-02T12:24:48;93222.50;;;25.54;100.00
8334;BME280;4204;43.004;23.052;2023-07-02T12:27:16;93216.03;;;25.48;100.00
8334;BME280;4204;43.004;23.052;2023-07-02T12:29:45;93218.88;;;25.41;100.00
8334;BME280;4204;43.004;23.052;2023-07-02T12:32:15;93214.75;;;25.33;100.00
8334;BME280;4204;43.004;23.052;2023-07-02T12:34:44;93220.56;;;25.16;100.00
8334;BME280;4204;43.004;23.052;2023-07-02T12:37:12;93212.09;;;25.10;100.00
8334;BME280;4204;43.004;23.052;2023-07-02T12:39:43;93214.25;;;24.99;100.00
8334;BME280;4204;43.004;23.052;2023-07-02T12:42:12;93217.34;;;25.01;100.00
8334;BME280;4204;43.004;23.052;2023-07-02T12:44:39;93208.25;;;24.88;100.00
8334;BME280;4204;43.004;23.052;2023-07-02T12:47:07;93205.75;;;24.97;100.00
8334;BME280;4204;43.004;23.052;2023-07-02T12:49:36;93209.50;;;25.03;100.00
8334;BME280;4204;43.004;23.052;2023-07-02T12:52:05;93216.53;;;25.20;100.00
8334;BME280;4204;43.004;23.052;2023-07-02T12:54:33;93211.09;;;25.20;100.00
8334;BME280;4204;43.004;23.052;2023-07-02T12:57:01;93206.72;;;25.26;100.00
8334;BME280;4204;43.004;23.052;2023-07-02T12:59:29;93211.47;;;25.42;100.00
8334;BME280;4204;43.004;23.052;2023-07-02T13:01:56;93220.81;;;25.60;100.00
8334;BME280;4204;43.004;23.052;2023-07-02T13:04:24;93223.41;;;25.67;100.00
8334;BME280;4204;43.004;23.052;2023-07-02T13:06:52;93204.25;;;25.71;100.00
8334;BME280;4204;43.004;23.052;2023-07-02T13:09:21;93209.47;;;25.82;100.00